M I D A S
Marine Information and Data Acquisition System
Tripno 1025 of the Zeeleeuw from 2006-01-19 07:34:41 to 2006-01-19 16:23:26
Back to CruiseResearch ActivitiesStationsMapUnderway DataData graphs

EquipmentUnitsComment
TimeDGPSUTC
LatitudeDGPSDM.mWGS84
LongitudeDGPSDM.mWGS84
TemperatureSBE03/SBE38deg celciusITS90
ConductivitySBE21S/mITS90
SalinitySBE21 Practical Salinity Units
ChlorophylAChelsea fluorimeterg/lCalibrated in Aceton
Missing or incorrect values are displayed as -999
Sea surface data collected by the RV Zeeleeuw from 2006-01-19 07:34:12 to 2006-01-19 16:40:00
Time Latitude Longitude Temperature Conductivity Salinity ChlorophylA
2006-01-19 07:35:17 51°13.599 2°56.097 -999 2.972883 30.862926 -1.219471
2006-01-19 07:36:17 51°13.597 2°56.098 -999 2.962748 30.72704 -1.219471
2006-01-19 07:37:17 51°13.605 2°56.077 -999 2.955508 30.649501 -1.219471
2006-01-19 07:38:17 51°13.623 2°56.021 -999 2.914658 30.109426 -1.084634
2006-01-19 07:39:17 51°13.655 2°55.917 -999 2.908868 30.120443 -1.118343
2006-01-19 07:40:17 51°13.69 2°55.79 -999 2.895736 30.029934 -0.949796
2006-01-19 07:41:17 51°13.703 2°55.758 -999 2.852307 29.542195 -0.983506
2006-01-19 07:42:17 51°13.711 2°55.758 -999 2.864508 29.667716 -1.050924
2006-01-19 07:43:17 51°13.716 2°55.743 -999 2.871849 29.754191 -1.084634
2006-01-19 07:44:17 51°13.775 2°55.677 -999 2.723801 28.094849 -1.084634
2006-01-19 07:45:17 51°13.865 2°55.612 -999 2.773421 28.646385 -0.983506
2006-01-19 07:46:17 51°13.966 2°55.539 -999 2.814982 29.123973 -1.050924
2006-01-19 07:47:17 51°14.069 2°55.464 -999 2.929861 30.420711 -1.118343
2006-01-19 07:48:17 51°14.179 2°55.367 -999 2.920968 30.31438 -1.084634
2006-01-19 07:49:17 51°14.286 2°55.218 -999 2.872159 29.761211 -1.118343
2006-01-19 07:50:17 51°14.38 2°55.026 -999 2.892633 29.980437 -1.118343
2006-01-19 07:51:17 51°14.439 2°54.762 -999 2.920864 30.283137 -1.084634
2006-01-19 07:52:17 51°14.465 2°54.425 -999 3.021598 31.370923 -1.118343
2006-01-19 07:53:17 51°14.435 2°54.09 -999 3.137253 32.613359 -1.185762
2006-01-19 07:54:17 51°14.321 2°53.791 -999 3.147599 32.705855 -1.185762
2006-01-19 07:55:17 51°14.207 2°53.486 -999 3.163429 32.886111 -1.152053
2006-01-19 07:56:16 51°14.097 2°53.184 -999 3.154117 32.760892 -1.185762
2006-01-19 07:57:17 51°13.981 2°52.872 -999 3.158979 32.80826 -1.185762
2006-01-19 07:58:17 51°13.861 2°52.577 -999 3.181328 33.030935 -1.185762
2006-01-19 07:59:17 51°13.746 2°52.278 -999 3.20016 33.188984 -1.185762
2006-01-19 08:00:17 51°13.631 2°51.976 -999 3.206057 33.213573 -1.219471
2006-01-19 08:01:17 51°13.513 2°51.672 -999 3.214749 33.296063 -1.219471
2006-01-19 08:02:17 51°13.395 2°51.369 -999 3.21775 33.343967 -1.219471
2006-01-19 08:03:17 51°13.276 2°51.065 -999 3.214335 33.294194 -1.219471
2006-01-19 08:04:17 51°13.158 2°50.759 -999 3.221062 33.362741 -1.219471
2006-01-19 08:05:17 51°13.041 2°50.451 -999 3.222614 33.369973 -1.219471
2006-01-19 08:06:17 51°12.927 2°50.14 -999 3.227891 33.414165 -1.219471
2006-01-19 08:07:17 51°12.816 2°49.826 -999 3.228098 33.391528 -1.219471
2006-01-19 08:08:17 51°12.706 2°49.513 -999 3.229753 33.387443 -1.219471
2006-01-19 08:09:17 51°12.596 2°49.198 -999 3.238756 33.458845 -1.219471
2006-01-19 08:10:17 51°12.486 2°48.885 -999 3.245482 33.493529 -1.219471
2006-01-19 08:11:17 51°12.378 2°48.569 -999 3.247551 33.488376 -1.219471
2006-01-19 08:12:17 51°12.268 2°48.254 -999 3.252208 33.517588 -1.219471
2006-01-19 08:13:17 51°12.159 2°47.937 -999 3.253967 33.520402 -1.253181
2006-01-19 08:14:17 51°12.05 2°47.623 -999 3.258727 33.526774 -1.253181
2006-01-19 08:15:17 51°11.942 2°47.308 -999 3.262245 33.499873 -1.219471
2006-01-19 08:16:17 51°11.832 2°46.995 -999 3.264625 33.477314 -1.253181
2006-01-19 08:17:17 51°11.727 2°46.679 -999 3.26628 33.472306 -1.253181
2006-01-19 08:18:17 51°11.621 2°46.364 -999 3.266383 33.451586 -1.253181
2006-01-19 08:19:17 51°11.515 2°46.05 -999 3.260381 33.365416 -1.253181
2006-01-19 08:20:17 51°11.426 2°45.721 -999 3.262451 33.383205 -1.253181
2006-01-19 08:21:17 51°11.34 2°45.389 -999 3.261209 33.362482 -1.253181
2006-01-19 08:22:17 51°11.255 2°45.057 -999 3.261623 33.361489 -1.253181
2006-01-19 08:23:17 51°11.168 2°44.725 -999 3.261933 33.346066 -1.253181
2006-01-19 08:24:17 51°11.082 2°44.393 -999 3.262864 33.347155 -1.253181
2006-01-19 08:25:17 51°11.007 2°44.054 -999 3.26483 33.359021 -1.253181
2006-01-19 08:26:17 51°10.929 2°43.715 -999 3.262346 33.319544 -1.253181
2006-01-19 08:27:17 51°10.85 2°43.377 -999 3.259138 33.271901 -1.253181
2006-01-19 08:28:18 51°10.774 2°43.031 -999 3.265761 33.324194 -1.253181
2006-01-19 08:29:17 51°10.7 2°42.697 -999 3.268555 33.331257 -1.253181
2006-01-19 08:30:17 51°10.625 2°42.357 -999 3.272384 33.345293 -1.253181
2006-01-19 08:31:17 51°10.547 2°42.019 -999 3.277041 33.371489 -1.253181
2006-01-19 08:32:17 51°10.472 2°41.678 -999 3.281491 33.384012 -1.253181
2006-01-19 08:33:17 51°10.4 2°41.336 -999 3.280042 33.356373 -1.253181
2006-01-19 08:34:17 51°10.33 2°40.993 -999 3.276109 33.308274 -1.253181
2006-01-19 08:35:17 51°10.259 2°40.649 -999 3.252203 33.072527 -1.253181
2006-01-19 08:36:17 51°10.185 2°40.307 -999 3.266174 33.197243 -1.219471
2006-01-19 08:37:17 51°10.113 2°39.963 -999 3.292357 33.442454 -1.219471
2006-01-19 08:38:17 51°10.041 2°39.619 -999 3.299705 33.508255 -1.219471
2006-01-19 08:39:17 51°9.969 2°39.273 -999 3.298566 33.487893 -1.219471
2006-01-19 08:40:17 51°9.898 2°38.925 -999 3.29453 33.445274 -1.219471
2006-01-19 08:41:17 51°9.828 2°38.576 -999 3.280041 33.327229 -1.219471
2006-01-19 08:42:17 51°9.759 2°38.224 -999 3.280144 33.295553 -1.219471
2006-01-19 08:43:17 51°9.687 2°37.876 -999 3.295875 33.404958 -1.219471
2006-01-19 08:44:17 51°9.615 2°37.526 -999 3.323611 33.589556 -1.219471
2006-01-19 08:45:17 51°9.541 2°37.176 -999 3.348762 33.70482 -1.219471
2006-01-19 08:46:17 51°9.468 2°36.825 -999 3.378571 33.854305 -1.219471
2006-01-19 08:47:17 51°9.393 2°36.475 -999 3.388508 33.903894 -1.253181
2006-01-19 08:48:17 51°9.317 2°36.123 -999 3.38592 33.896679 -1.253181
2006-01-19 08:49:17 51°9.247 2°35.766 -999 3.385713 33.896252 -1.253181
2006-01-19 08:50:17 51°9.177 2°35.412 -999 3.385817 33.908648 -1.253181
2006-01-19 08:51:17 51°9.107 2°35.059 -999 3.387059 33.924335 -1.219471
2006-01-19 08:52:17 51°9.039 2°34.706 -999 3.385817 33.91615 -1.219471
2006-01-19 08:53:17 51°8.976 2°34.351 -999 3.385299 33.910394 -1.219471
2006-01-19 08:54:17 51°8.917 2°33.996 -999 3.384782 33.927156 -1.219471
2006-01-19 08:55:18 51°8.893 2°33.732 -999 3.38561 33.940128 -1.219471
2006-01-19 08:56:17 51°8.985 2°33.693 -999 3.383643 33.910732 -1.219471
2006-01-19 08:57:18 51°8.963 2°33.839 -999 3.37619 33.805375 -1.253181
2006-01-19 08:58:17 51°8.962 2°33.966 -999 3.38561 33.942007 -1.253181
2006-01-19 08:59:18 51°8.956 2°34.008 -999 3.387473 33.955228 -1.253181
2006-01-19 09:00:17 51°8.946 2°34.002 -999 3.386749 33.951862 -1.253181
2006-01-19 09:01:17 51°8.935 2°33.993 -999 3.386956 33.954166 -1.253181
2006-01-19 09:02:17 51°8.88 2°33.971 -999 3.386438 33.939952 -1.253181
2006-01-19 09:03:17 51°8.86 2°33.843 -999 3.386024 33.941918 -1.253181
2006-01-19 09:04:17 51°8.921 2°33.786 -999 3.385921 33.937949 -1.253181
2006-01-19 09:05:17 51°8.921 2°33.763 -999 3.386231 33.94798 -1.253181
2006-01-19 09:06:17 51°8.923 2°33.747 -999 3.38737 33.956895 -1.219471
2006-01-19 09:07:17 51°8.966 2°33.714 -999 3.386645 33.955409 -1.219471
2006-01-19 09:08:17 51°8.963 2°33.588 -999 3.386335 33.956652 -1.253181
2006-01-19 09:09:17 51°8.895 2°33.548 -999 3.385817 33.95465 -1.253181
2006-01-19 09:10:17 51°8.831 2°33.606 -999 3.386852 33.952074 -1.253181
2006-01-19 09:11:17 51°8.812 2°33.594 -999 3.387473 33.960867 -1.219471
2006-01-19 09:12:17 51°8.809 2°33.579 -999 3.38737 33.957835 -1.253181
2006-01-19 09:13:17 51°8.784 2°33.514 -999 3.387577 33.95732 -1.253181
2006-01-19 09:14:18 51°8.771 2°33.445 -999 3.387266 33.954803 -1.253181
2006-01-19 09:15:17 51°8.77 2°33.444 -999 3.388716 33.968112 -1.253181
2006-01-19 09:16:18 51°8.767 2°33.421 -999 3.388094 33.959321 -1.219471
2006-01-19 09:17:17 51°8.742 2°33.356 -999 3.387887 33.958896 -1.253181
2006-01-19 09:18:18 51°8.686 2°33.281 -999 3.388094 33.958381 -1.219471
2006-01-19 09:19:17 51°8.676 2°33.26 -999 3.389026 33.966869 -1.253181
2006-01-19 09:20:18 51°8.671 2°33.242 -999 3.387991 33.95629 -1.219471
2006-01-19 09:21:17 51°8.611 2°33.139 -999 3.388301 33.959745 -1.219471
2006-01-19 09:22:17 51°8.595 2°33.101 -999 3.389233 33.964474 -1.253181
2006-01-19 09:23:17 51°8.59 2°33.09 -999 3.388819 33.95611 -1.219471
2006-01-19 09:24:17 51°8.573 2°33.029 -999 3.389751 33.966474 -1.219471
2006-01-19 09:25:17 51°8.528 2°32.957 -999 3.389958 33.963141 -1.219471
2006-01-19 09:26:17 51°8.522 2°32.943 -999 3.390579 33.964414 -1.253181
2006-01-19 09:27:17 51°8.513 2°32.917 -999 3.390579 33.966292 -1.219471
2006-01-19 09:28:17 51°8.466 2°32.825 -999 3.390372 33.962111 -1.219471
2006-01-19 09:29:17 51°8.439 2°32.758 -999 3.391303 33.96496 -1.219471
2006-01-19 09:30:18 51°8.434 2°32.755 -999 3.392235 33.968747 -1.219471
2006-01-19 09:31:17 51°8.43 2°32.721 -999 3.392442 33.967293 -1.219471
2006-01-19 09:32:18 51°8.409 2°32.599 -999 3.392959 33.97117 -1.219471
2006-01-19 09:33:17 51°8.388 2°32.521 -999 3.393684 33.971715 -1.219471
2006-01-19 09:34:17 51°8.386 2°32.502 -999 3.394305 33.976741 -1.219471
2006-01-19 09:35:17 51°8.383 2°32.481 -999 3.394615 33.980193 -1.219471
2006-01-19 09:36:17 51°8.378 2°32.432 -999 3.394512 33.981859 -1.219471
2006-01-19 09:37:17 51°8.372 2°32.391 -999 3.394719 33.980405 -1.253181
2006-01-19 09:38:17 51°8.37 2°32.409 -999 3.395444 33.986581 -1.219471
2006-01-19 09:39:17 51°8.364 2°32.43 -999 3.394926 33.983645 -1.219471
2006-01-19 09:40:17 51°8.356 2°32.431 -999 3.394512 33.981859 -1.219471
2006-01-19 09:41:18 51°8.361 2°32.352 -999 3.394719 33.983221 -1.253181
2006-01-19 09:42:18 51°8.384 2°32.238 -999 3.394512 33.97435 -1.253181
2006-01-19 09:43:18 51°8.427 2°32.216 -999 3.39358 33.984648 -1.219471
2006-01-19 09:44:17 51°8.438 2°32.244 -999 3.392442 33.979501 -1.253181
2006-01-19 09:45:18 51°8.427 2°32.258 -999 3.391717 33.987416 -1.253181
2006-01-19 09:46:18 51°8.415 2°32.266 -999 3.39151 33.989813 -1.253181
2006-01-19 09:47:17 51°8.418 2°32.323 -999 3.391303 33.98751 -1.253181
2006-01-19 09:48:17 51°8.456 2°32.422 -999 3.391096 33.981446 -1.253181
2006-01-19 09:49:17 51°8.472 2°32.473 -999 3.390682 33.977779 -1.253181
2006-01-19 09:50:17 51°8.47 2°32.482 -999 3.389958 33.977236 -1.219471
2006-01-19 09:51:18 51°8.468 2°32.52 -999 3.389854 33.978904 -1.253181
2006-01-19 09:52:18 51°8.503 2°32.605 -999 3.389751 33.973052 -1.253181
2006-01-19 09:53:17 51°8.553 2°32.634 -999 3.389544 33.967929 -1.253181
2006-01-19 09:54:18 51°8.561 2°32.628 -999 3.390786 33.987392 -1.253181
2006-01-19 09:55:17 51°8.571 2°32.626 -999 3.390889 33.988544 -1.219471
2006-01-19 09:56:17 51°8.597 2°32.674 -999 3.390268 33.987274 -1.253181
2006-01-19 09:57:18 51°8.625 2°32.782 -999 3.389854 33.988309 -1.253181
2006-01-19 09:58:17 51°8.624 2°32.838 -999 3.389544 33.987674 -1.253181
2006-01-19 09:59:17 51°8.615 2°32.851 -999 3.389026 33.985675 -1.253181
2006-01-19 10:00:18 51°8.606 2°32.906 -999 3.388923 33.983582 -1.219471
2006-01-19 10:01:17 51°8.646 2°32.952 -999 3.388612 33.980124 -1.253181
2006-01-19 10:02:17 51°8.701 2°33.002 -999 3.388405 33.973117 -1.219471
2006-01-19 10:03:17 51°8.717 2°33.017 -999 3.387991 33.977913 -1.253181
2006-01-19 10:04:18 51°8.733 2°33.016 -999 3.387784 33.977489 -1.253181
2006-01-19 10:05:17 51°8.766 2°33.059 -999 3.388302 33.977608 -1.253181
2006-01-19 10:06:17 51°8.791 2°33.159 -999 3.388405 33.98817 -1.253181
2006-01-19 10:07:17 51°8.791 2°33.206 -999 3.388612 33.992358 -1.219471
2006-01-19 10:08:17 51°8.776 2°33.22 -999 3.388198 33.987747 -1.253181
2006-01-19 10:09:17 51°8.781 2°33.276 -999 3.387681 33.985747 -1.253181
2006-01-19 10:10:18 51°8.842 2°33.312 -999 3.386956 33.977677 -1.253181
2006-01-19 10:11:18 51°8.87 2°33.306 -999 3.386645 33.969513 -1.219471
2006-01-19 10:12:18 51°8.87 2°33.291 -999 3.387474 33.9825 -1.253181
2006-01-19 10:13:17 51°8.87 2°33.281 -999 3.388095 33.989418 -1.219471
2006-01-19 10:14:17 51°8.874 2°33.303 -999 3.388509 33.99403 -1.219471
2006-01-19 10:15:17 51°8.915 2°33.449 -999 3.388509 33.993088 -1.253181
2006-01-19 10:16:17 51°8.947 2°33.51 -999 3.387681 33.985747 -1.253181
2006-01-19 10:17:18 51°8.945 2°33.506 -999 3.387163 33.988455 -1.219471
2006-01-19 10:18:18 51°8.942 2°33.537 -999 3.38706 33.987302 -1.253181
2006-01-19 10:19:18 51°8.965 2°33.641 -999 3.386646 33.982689 -1.253181
2006-01-19 10:20:18 51°8.992 2°33.739 -999 3.384782 33.963814 -1.253181
2006-01-19 10:21:17 51°8.989 2°33.743 -999 3.383437 33.957291 -1.253181
2006-01-19 10:22:18 51°8.992 2°33.777 -999 3.382609 33.952769 -1.253181
2006-01-19 10:23:17 51°9.031 2°33.889 -999 3.38147 33.947609 -1.253181
2006-01-19 10:24:17 51°9.053 2°33.914 -999 3.3794 33.927359 -1.253181
2006-01-19 10:25:17 51°9.064 2°33.919 -999 3.378261 33.922193 -1.253181
2006-01-19 10:26:18 51°9.113 2°33.91 -999 3.376812 33.91921 -1.253181
2006-01-19 10:27:18 51°9.133 2°33.796 -999 3.375467 33.920205 -1.253181
2006-01-19 10:28:17 51°9.13 2°33.782 -999 3.375363 33.923759 -1.253181
2006-01-19 10:29:18 51°9.123 2°33.777 -999 3.375363 33.929411 -1.219471
2006-01-19 10:30:17 51°9.116 2°33.769 -999 3.375363 33.931295 -1.253181
2006-01-19 10:31:18 51°9.112 2°33.75 -999 3.375363 33.93318 -1.253181
2006-01-19 10:32:17 51°9.119 2°33.663 -999 3.375881 33.935186 -1.253181
2006-01-19 10:33:18 51°9.115 2°33.627 -999 3.375881 33.931417 -1.253181
2006-01-19 10:34:18 51°9.11 2°33.617 -999 3.375467 33.930566 -1.253181
2006-01-19 10:35:18 51°9.101 2°33.552 -999 3.375777 33.934031 -1.253181
2006-01-19 10:36:17 51°9.041 2°33.473 -999 3.375777 33.933089 -1.253181
2006-01-19 10:37:18 51°8.979 2°33.38 -999 3.376088 33.931843 -1.253181
2006-01-19 10:38:18 51°8.981 2°33.379 -999 3.376916 33.939198 -1.253181
2006-01-19 10:39:18 51°8.983 2°33.383 -999 3.37733 33.946645 -1.253181
2006-01-19 10:40:18 51°8.97 2°33.313 -999 3.37733 33.945702 -1.253181
2006-01-19 10:41:17 51°8.943 2°33.23 -999 3.37764 33.94634 -1.253181
2006-01-19 10:42:18 51°8.943 2°33.219 -999 3.378365 33.944058 -1.253181
2006-01-19 10:43:17 51°8.941 2°33.213 -999 3.377744 33.944667 -1.253181
2006-01-19 10:44:18 51°8.938 2°33.207 -999 3.377433 33.94403 -1.253181
2006-01-19 10:45:18 51°8.928 2°33.148 -999 3.377537 33.944242 -1.253181
2006-01-19 10:46:18 51°8.901 2°33.088 -999 3.37764 33.941628 -1.253181
2006-01-19 10:47:17 51°8.906 2°33.085 -999 3.37764 33.939744 -1.253181
2006-01-19 10:48:17 51°8.891 2°33.058 -999 3.376812 33.938043 -1.253181
2006-01-19 10:49:18 51°8.827 2°32.95 -999 3.376916 33.937313 -1.253181
2006-01-19 10:50:18 51°8.796 2°32.886 -999 3.377433 33.941203 -1.253181
2006-01-19 10:51:18 51°8.791 2°32.892 -999 3.378468 33.949924 -1.253181
2006-01-19 10:52:18 51°8.781 2°32.853 -999 3.378986 33.951928 -1.253181
2006-01-19 10:53:17 51°8.731 2°32.75 -999 3.379296 33.949739 -1.253181
2006-01-19 10:54:18 51°8.708 2°32.709 -999 3.380021 33.95311 -1.253181
2006-01-19 10:55:17 51°8.705 2°32.71 -999 3.380746 33.95648 -1.253181
2006-01-19 10:56:17 51°8.684 2°32.627 -999 3.380849 33.957634 -1.253181
2006-01-19 10:57:17 51°8.655 2°32.549 -999 3.381677 33.95839 -1.253181
2006-01-19 10:58:17 51°8.654 2°32.552 -999 3.381677 33.95839 -1.253181
2006-01-19 10:59:18 51°8.633 2°32.502 -999 3.381367 33.957753 -1.253181
2006-01-19 11:00:17 51°8.564 2°32.427 -999 3.381781 33.956719 -1.253181
2006-01-19 11:01:18 51°8.559 2°32.423 -999 3.383126 33.962303 -1.253181
2006-01-19 11:02:17 51°8.562 2°32.427 -999 3.38354 33.968801 -1.253181
2006-01-19 11:03:18 51°8.523 2°32.34 -999 3.383437 33.968589 -1.253181
2006-01-19 11:04:17 51°8.485 2°32.211 -999 3.384058 33.968919 -1.253181
2006-01-19 11:05:17 51°8.477 2°32.222 -999 3.384265 33.974051 -1.253181
2006-01-19 11:06:17 51°8.467 2°32.235 -999 3.384368 33.975205 -1.253181
2006-01-19 11:07:17 51°8.451 2°32.237 -999 3.384782 33.976052 -1.253181
2006-01-19 11:08:18 51°8.436 2°32.232 -999 3.384886 33.977206 -1.253181
2006-01-19 11:09:17 51°8.424 2°32.224 -999 3.385507 33.979418 -1.253181
2006-01-19 11:10:18 51°8.413 2°32.214 -999 3.386128 33.982572 -1.253181
2006-01-19 11:11:18 51°8.404 2°32.203 -999 3.386439 33.984149 -1.253181
2006-01-19 11:12:18 51°8.397 2°32.189 -999 3.386853 33.985937 -1.253181
2006-01-19 11:13:17 51°8.391 2°32.175 -999 3.386956 33.986149 -1.253181
2006-01-19 11:14:18 51°8.386 2°32.157 -999 3.387474 33.988148 -1.253181
2006-01-19 11:15:17 51°8.381 2°32.14 -999 3.387991 33.988265 -1.253181
2006-01-19 11:16:18 51°8.376 2°32.122 -999 3.388716 33.98504 -1.253181
2006-01-19 11:17:17 51°8.37 2°32.105 -999 3.38944 33.985581 -1.253181
2006-01-19 11:18:17 51°8.365 2°32.087 -999 3.388923 33.984523 -1.253181
2006-01-19 11:19:17 51°8.359 2°32.069 -999 3.388509 33.982735 -1.253181
2006-01-19 11:20:17 51°8.355 2°32.052 -999 3.388198 33.981159 -1.253181
2006-01-19 11:21:17 51°8.359 2°32.02 -999 3.387267 33.97643 -1.253181
2006-01-19 11:22:17 51°8.38 2°31.967 -999 3.38706 33.972243 -1.253181
2006-01-19 11:23:17 51°8.424 2°31.936 -999 3.384989 33.967062 -1.253181
2006-01-19 11:24:17 51°8.475 2°31.945 -999 3.381056 33.946759 -1.253181
2006-01-19 11:25:17 51°8.52 2°31.991 -999 3.378675 33.92775 -1.253181
2006-01-19 11:26:17 51°8.544 2°32.046 -999 3.376398 33.91177 -1.253181
2006-01-19 11:27:17 51°8.557 2°32.085 -999 3.375052 33.903351 -1.253181
2006-01-19 11:28:17 51°8.557 2°32.106 -999 3.374224 33.899761 -1.253181
2006-01-19 11:29:17 51°8.555 2°32.12 -999 3.373707 33.895871 -1.253181
2006-01-19 11:30:17 51°8.549 2°32.13 -999 3.373189 33.894802 -1.253181
2006-01-19 11:31:17 51°8.54 2°32.135 -999 3.372982 33.892493 -1.253181
2006-01-19 11:32:17 51°8.532 2°32.134 -999 3.372775 33.893007 -1.253181
2006-01-19 11:33:17 51°8.524 2°32.131 -999 3.372672 33.890911 -1.253181
2006-01-19 11:34:17 51°8.515 2°32.126 -999 3.372879 33.89228 -1.253181
2006-01-19 11:35:17 51°8.508 2°32.119 -999 3.372982 33.891552 -1.253181
2006-01-19 11:36:17 51°8.5 2°32.112 -999 3.372879 33.89228 -1.253181
2006-01-19 11:37:17 51°8.492 2°32.105 -999 3.372568 33.891638 -1.253181
2006-01-19 11:38:17 51°8.485 2°32.099 -999 3.372568 33.891638 -1.253181
2006-01-19 11:39:17 51°8.468 2°32.104 -999 3.372672 33.890911 -1.253181
2006-01-19 11:40:17 51°8.403 2°32.092 -999 3.373086 33.891766 -1.253181
2006-01-19 11:41:17 51°8.369 2°31.982 -999 3.373293 33.901604 -1.253181
2006-01-19 11:42:17 51°8.418 2°31.91 -999 3.374328 33.913152 -1.253181
2006-01-19 11:43:17 51°8.476 2°31.948 -999 3.372879 33.900749 -1.253181
2006-01-19 11:44:17 51°8.531 2°32.014 -999 3.371947 33.890356 -1.253181
2006-01-19 11:45:17 51°8.581 2°32.084 -999 3.37174 33.885223 -1.253181
2006-01-19 11:46:17 51°8.607 2°32.1 -999 3.371844 33.881674 -1.253181
2006-01-19 11:47:17 51°8.608 2°32.092 -999 3.372361 33.880863 -1.253181
2006-01-19 11:48:17 51°8.61 2°32.095 -999 3.372672 33.882446 -1.253181
2006-01-19 11:49:17 51°8.628 2°32.162 -999 3.373707 33.885525 -1.253181
2006-01-19 11:50:17 51°8.651 2°32.267 -999 3.374328 33.887749 -1.253181
2006-01-19 11:51:17 51°8.664 2°32.312 -999 3.372982 33.883088 -1.253181
2006-01-19 11:52:17 51°8.664 2°32.313 -999 3.372361 33.880863 -1.253181
2006-01-19 11:53:17 51°8.675 2°32.345 -999 3.372465 33.882958 -1.253181
2006-01-19 11:54:17 51°8.709 2°32.425 -999 3.371947 33.880007 -1.253181
2006-01-19 11:55:17 51°8.729 2°32.457 -999 3.370912 33.873164 -1.253181
2006-01-19 11:56:18 51°8.732 2°32.457 -999 3.370498 33.872307 -1.253181
2006-01-19 11:57:17 51°8.755 2°32.498 -999 3.371223 33.87945 -1.253181
2006-01-19 11:58:17 51°8.791 2°32.586 -999 3.369877 33.868201 -1.253181
2006-01-19 11:59:17 51°8.8 2°32.627 -999 3.36584 33.840084 -1.253181
2006-01-19 12:00:17 51°8.799 2°32.63 -999 3.36346 33.828556 -1.253181
2006-01-19 12:01:17 51°8.796 2°32.685 -999 3.36377 33.831082 -1.253181
2006-01-19 12:02:17 51°8.836 2°32.769 -999 3.362631 33.819312 -1.253181
2006-01-19 12:03:17 51°8.886 2°32.81 -999 3.36201 33.815199 -1.253181
2006-01-19 12:04:17 51°8.886 2°32.807 -999 3.361389 33.812026 -1.253181
2006-01-19 12:05:17 51°8.89 2°32.805 -999 3.360975 33.812104 -1.253181
2006-01-19 12:06:17 51°8.933 2°32.812 -999 3.361079 33.81326 -1.253181
2006-01-19 12:07:17 51°8.96 2°32.898 -999 3.360872 33.807188 -1.253181
2006-01-19 12:08:17 51°8.961 2°32.977 -999 3.358802 33.794412 -1.253181
2006-01-19 12:09:17 51°8.962 2°32.983 -999 3.357249 33.783652 -1.253181
2006-01-19 12:10:17 51°8.966 2°32.993 -999 3.358491 33.792825 -1.253181
2006-01-19 12:11:17 51°8.99 2°33.063 -999 3.35994 33.805247 -1.253181
2006-01-19 12:12:17 51°9.024 2°33.137 -999 3.358905 33.798388 -1.253181
2006-01-19 12:13:17 51°9.029 2°33.143 -999 3.358388 33.796369 -1.253181
2006-01-19 12:14:17 51°9.033 2°33.157 -999 3.359423 33.806049 -1.253181
2006-01-19 12:15:17 51°9.057 2°33.247 -999 3.35994 33.809008 -1.253181
2006-01-19 12:16:17 51°9.08 2°33.302 -999 3.359733 33.807636 -1.253181
2006-01-19 12:17:17 51°9.082 2°33.298 -999 3.359216 33.801856 -1.253181
2006-01-19 12:18:17 51°9.086 2°33.299 -999 3.35963 33.80554 -1.253181
2006-01-19 12:19:17 51°9.092 2°33.307 -999 3.360044 33.807343 -1.253181
2006-01-19 12:20:17 51°9.114 2°33.386 -999 3.360044 33.807343 -1.253181
2006-01-19 12:21:17 51°9.141 2°33.508 -999 3.358491 33.795645 -1.253181
2006-01-19 12:22:17 51°9.146 2°33.525 -999 3.35756 33.789 -1.253181
2006-01-19 12:23:17 51°9.151 2°33.528 -999 3.359423 33.803228 -1.253181
2006-01-19 12:24:17 51°9.162 2°33.609 -999 3.362114 33.821056 -1.253181
2006-01-19 12:25:17 51°9.193 2°33.713 -999 3.359837 33.800331 -1.253181
2006-01-19 12:26:17 51°9.199 2°33.722 -999 3.357249 33.783652 -1.253181
2006-01-19 12:27:17 51°9.204 2°33.726 -999 3.359319 33.798312 -1.253181
2006-01-19 12:28:17 51°9.21 2°33.732 -999 3.362217 33.818451 -1.253181
2006-01-19 12:29:17 51°9.221 2°33.77 -999 3.362424 33.819821 -1.253181
2006-01-19 12:30:17 51°9.278 2°33.787 -999 3.360458 33.805385 -1.253181
2006-01-19 12:31:17 51°9.309 2°33.711 -999 3.356318 33.776068 -1.253181
2006-01-19 12:32:18 51°9.294 2°33.643 -999 3.355282 33.757933 -1.253181
2006-01-19 12:33:17 51°9.294 2°33.627 -999 3.354661 33.751938 -1.253181
2006-01-19 12:34:17 51°9.299 2°33.617 -999 3.354765 33.754971 -1.253181
2006-01-19 12:35:18 51°9.291 2°33.539 -999 3.3558 33.761834 -1.253181
2006-01-19 12:36:18 51°9.229 2°33.469 -999 3.356524 33.76429 -1.253181
2006-01-19 12:37:17 51°9.197 2°33.448 -999 3.357042 33.770068 -1.253181
2006-01-19 12:38:16 51°9.198 2°33.454 -999 3.358077 33.779745 -1.253181
2006-01-19 12:39:17 51°9.187 2°33.464 -999 3.359216 33.789638 -1.253181
2006-01-19 12:40:17 51°9.148 2°33.423 -999 3.3617 33.804215 -1.253181
2006-01-19 12:41:18 51°9.149 2°33.314 -999 3.363252 33.823424 -1.253181
2006-01-19 12:42:17 51°9.137 2°33.239 -999 3.362838 33.820683 -1.253181
2006-01-19 12:43:17 51°9.144 2°33.243 -999 3.362114 33.814475 -1.253181
2006-01-19 12:44:17 51°9.151 2°33.24 -999 3.361596 33.809637 -1.253181
2006-01-19 12:45:17 51°9.13 2°33.173 -999 3.361079 33.807619 -1.253181
2006-01-19 12:46:17 51°9.095 2°33.105 -999 3.361596 33.805879 -1.253181
2006-01-19 12:47:17 51°9.089 2°33.098 -999 3.361493 33.807542 -1.253181
2006-01-19 12:48:17 51°9.086 2°33.101 -999 3.362217 33.81563 -1.253181
2006-01-19 12:49:17 51°9.051 2°33.046 -999 3.36377 33.827321 -1.253181
2006-01-19 12:50:17 51°9.026 2°32.93 -999 3.36553 33.838499 -1.253181
2006-01-19 12:51:18 51°9.028 2°32.905 -999 3.364909 33.834388 -1.253181
2006-01-19 12:52:17 51°9.038 2°32.915 -999 3.365116 33.833878 -1.253181
2006-01-19 12:53:17 51°9.058 2°32.894 -999 3.367082 33.849244 -1.253181
2006-01-19 12:54:17 51°9.04 2°32.833 -999 3.367393 33.847067 -1.253181
2006-01-19 12:55:17 51°8.979 2°32.781 -999 3.366254 33.831545 -1.253181
2006-01-19 12:56:17 51°8.947 2°32.735 -999 3.366047 33.831115 -1.253181
2006-01-19 12:57:17 51°8.95 2°32.735 -999 3.369152 33.853537 -1.253181
2006-01-19 12:58:17 51°8.961 2°32.72 -999 3.370705 33.866154 -1.253181
2006-01-19 12:59:17 51°8.936 2°32.647 -999 3.370705 33.867094 -1.253181
2006-01-19 13:00:18 51°8.866 2°32.605 -999 3.368531 33.841913 -1.253181
2006-01-19 13:01:17 51°8.844 2°32.542 -999 3.366565 33.831251 -1.253181
2006-01-19 13:02:17 51°8.852 2°32.548 -999 3.368014 33.844597 -1.253181
2006-01-19 13:03:17 51°8.865 2°32.562 -999 3.371947 33.872485 -1.253181
2006-01-19 13:04:17 51°8.887 2°32.548 -999 3.374845 33.894459 -1.253181
2006-01-19 13:05:17 51°8.855 2°32.494 -999 3.37557 33.892195 -1.253181
2006-01-19 13:06:18 51°8.77 2°32.417 -999 3.398549 34.022977 -1.253181
2006-01-19 13:07:17 51°8.764 2°32.42 -999 3.391614 33.979685 -1.253181
2006-01-19 13:08:17 51°8.769 2°32.44 -999 3.388612 33.963201 -1.253181
2006-01-19 13:09:17 51°8.773 2°32.4 -999 3.389233 33.966353 -1.253181
2006-01-19 13:10:16 51°8.746 2°32.268 -999 3.388612 33.960382 -1.253181
2006-01-19 13:11:18 51°8.719 2°32.21 -999 3.388405 33.9562 -1.253181
2006-01-19 13:12:17 51°8.719 2°32.212 -999 3.389129 33.956747 -1.253181
2006-01-19 13:13:18 51°8.721 2°32.222 -999 3.390889 33.96505 -1.253181
2006-01-19 13:14:17 51°8.704 2°32.191 -999 3.392959 33.975864 -1.253181
2006-01-19 13:15:18 51°8.664 2°32.117 -999 3.393166 33.97441 -1.253181
2006-01-19 13:16:18 51°8.663 2°32.124 -999 3.39358 33.978074 -1.253181
2006-01-19 13:17:17 51°8.666 2°32.15 -999 3.39358 33.976197 -1.253181
2006-01-19 13:18:18 51°8.635 2°32.15 -999 3.394408 33.978831 -1.253181
2006-01-19 13:19:17 51°8.617 2°32.08 -999 3.387059 33.942167 -1.253181
2006-01-19 13:20:17 51°8.678 2°31.976 -999 3.386438 33.939952 -1.253181
2006-01-19 13:21:17 51°8.766 2°32.027 -999 3.40859 34.052789 -1.219471
2006-01-19 13:22:18 51°8.787 2°32.076 -999 3.415215 34.107508 -1.219471
2006-01-19 13:23:17 51°8.795 2°32.095 -999 3.415733 34.116067 -1.219471
2006-01-19 13:24:17 51°8.808 2°32.134 -999 3.416043 34.118573 -1.253181
2006-01-19 13:25:17 51°8.82 2°32.184 -999 3.416457 34.120347 -1.219471
2006-01-19 13:26:17 51°8.827 2°32.191 -999 3.416561 34.121495 -1.219471
2006-01-19 13:27:17 51°8.837 2°32.211 -999 3.416457 34.123166 -1.219471
2006-01-19 13:28:17 51°8.85 2°32.295 -999 3.416768 34.121913 -1.219471
2006-01-19 13:29:18 51°8.86 2°32.346 -999 3.416768 34.123792 -1.219471
2006-01-19 13:30:17 51°8.868 2°32.36 -999 3.416768 34.122852 -1.219471
2006-01-19 13:31:18 51°8.885 2°32.431 -999 3.416975 34.12233 -1.219471
2006-01-19 13:32:18 51°8.901 2°32.485 -999 3.41801 34.12066 -1.219471
2006-01-19 13:33:17 51°8.897 2°32.503 -999 3.418114 34.121807 -1.219471
2006-01-19 13:34:17 51°8.909 2°32.546 -999 3.417906 34.120451 -1.219471
2006-01-19 13:35:18 51°8.976 2°32.615 -999 3.418321 34.118469 -1.253181
2006-01-19 13:36:18 51°9.029 2°32.661 -999 3.418838 34.117635 -1.219471
2006-01-19 13:37:17 51°9.031 2°32.671 -999 3.417182 34.125566 -1.219471
2006-01-19 13:38:17 51°9.037 2°32.694 -999 3.416147 34.12724 -1.219471
2006-01-19 13:39:18 51°9.073 2°32.778 -999 3.416043 34.126091 -1.219471
2006-01-19 13:40:18 51°9.085 2°32.82 -999 3.416147 34.12724 -1.219471
2006-01-19 13:41:18 51°9.086 2°32.835 -999 3.41625 34.127448 -1.219471
2006-01-19 13:42:17 51°9.11 2°32.9 -999 3.41625 34.125568 -1.219471
2006-01-19 13:43:18 51°9.154 2°32.978 -999 3.417078 34.124418 -1.219471
2006-01-19 13:44:18 51°9.151 2°32.995 -999 3.417285 34.124835 -1.219471
2006-01-19 13:45:17 51°9.158 2°33.028 -999 3.416768 34.125671 -1.219471
2006-01-19 13:46:17 51°9.208 2°33.101 -999 3.416561 34.124314 -1.219471
2006-01-19 13:47:18 51°9.212 2°33.133 -999 3.416871 34.12588 -1.219471
2006-01-19 13:48:17 51°9.213 2°33.165 -999 3.416043 34.127971 -1.219471
2006-01-19 13:49:17 51°9.255 2°33.219 -999 3.41594 34.125882 -1.219471
2006-01-19 13:50:18 51°9.298 2°33.287 -999 3.416664 34.126402 -1.219471
2006-01-19 13:51:18 51°9.307 2°33.305 -999 3.415112 34.134559 -1.219471
2006-01-19 13:52:18 51°9.32 2°33.334 -999 3.41387 34.139589 -1.219471
2006-01-19 13:53:17 51°9.335 2°33.418 -999 3.413249 34.143049 -1.219471
2006-01-19 13:54:17 51°9.354 2°33.526 -999 3.412835 34.142216 -1.219471
2006-01-19 13:55:18 51°9.365 2°33.556 -999 3.41387 34.135824 -1.219471
2006-01-19 13:56:17 51°9.376 2°33.576 -999 3.414387 34.13216 -1.219471
2006-01-19 13:57:17 51°9.4 2°33.639 -999 3.414387 34.131219 -1.219471
2006-01-19 13:58:17 51°9.474 2°33.692 -999 3.414284 34.129129 -1.219471
2006-01-19 13:59:17 51°9.503 2°33.63 -999 3.413042 34.145459 -1.219471
2006-01-19 14:00:17 51°9.47 2°33.552 -999 3.409523 34.159139 -1.219471
2006-01-19 14:01:17 51°9.44 2°33.449 -999 3.406521 34.168237 -1.219471
2006-01-19 14:02:17 51°9.431 2°33.426 -999 3.404865 34.168702 -1.219471
2006-01-19 14:03:17 51°9.435 2°33.441 -999 3.40383 34.16852 -1.219471
2006-01-19 14:04:18 51°9.417 2°33.396 -999 3.403312 34.169376 -1.219471
2006-01-19 14:05:18 51°9.378 2°33.303 -999 3.403312 34.16843 -1.219471
2006-01-19 14:06:18 51°9.353 2°33.222 -999 3.402898 34.169494 -1.219471
2006-01-19 14:07:17 51°9.35 2°33.213 -999 3.402588 34.169818 -1.219471
2006-01-19 14:08:17 51°9.353 2°33.219 -999 3.401967 34.168574 -1.219471
2006-01-19 14:09:17 51°9.337 2°33.181 -999 3.40176 34.168159 -1.219471
2006-01-19 14:10:17 51°9.303 2°33.124 -999 3.402484 34.168664 -1.219471
2006-01-19 14:11:17 51°9.281 2°33.086 -999 3.401967 34.169521 -1.219471
2006-01-19 14:12:18 51°9.279 2°33.081 -999 3.401553 34.169639 -1.219471
2006-01-19 14:13:17 51°9.282 2°33.075 -999 3.401242 34.169017 -1.219471
2006-01-19 14:14:17 51°9.261 2°33.008 -999 3.401553 34.168692 -1.219471
2006-01-19 14:15:18 51°9.217 2°32.931 -999 3.401553 34.170586 -1.219471
2006-01-19 14:16:18 51°9.205 2°32.928 -999 3.401035 34.170497 -1.219471
2006-01-19 14:17:18 51°9.202 2°32.944 -999 3.400724 34.170823 -1.219471
2006-01-19 14:18:18 51°9.174 2°32.897 -999 3.400517 34.170408 -1.219471
2006-01-19 14:19:17 51°9.144 2°32.795 -999 3.400828 34.169135 -1.219471
2006-01-19 14:20:18 51°9.137 2°32.734 -999 3.400207 34.171682 -1.219471
2006-01-19 14:21:17 51°9.147 2°32.755 -999 3.4 34.17506 -1.219471
2006-01-19 14:22:18 51°9.159 2°32.779 -999 3.4 34.174111 -1.219471
2006-01-19 14:23:18 51°9.167 2°32.743 -999 3.399482 34.176869 -1.219471
2006-01-19 14:24:19 51°9.119 2°32.687 -999 3.400621 34.179147 -1.219471
2006-01-19 14:25:19 51°9.073 2°32.603 -999 3.400725 34.183148 -1.219471
2006-01-19 14:26:18 51°9.071 2°32.6 -999 3.400518 34.181785 -1.219471
2006-01-19 14:27:19 51°9.078 2°32.614 -999 3.400104 34.182854 -1.219471
2006-01-19 14:28:18 51°9.09 2°32.632 -999 3.400207 34.183061 -1.219471
2006-01-19 14:29:18 51°9.104 2°32.65 -999 3.399379 34.17761 -1.219471
2006-01-19 14:30:19 51°9.123 2°32.645 -999 3.400207 34.181164 -1.219471
2006-01-19 14:31:18 51°9.133 2°32.676 -999 3.400621 34.182941 -1.219471
2006-01-19 14:32:18 51°9.142 2°32.709 -999 3.400725 34.185045 -1.219471
2006-01-19 14:33:18 51°9.156 2°32.73 -999 3.400621 34.184838 -1.253181
2006-01-19 14:34:19 51°9.145 2°32.636 -999 3.400414 34.183475 -1.219471
2006-01-19 14:35:18 51°9.07 2°32.517 -999 3.400725 34.185045 -1.219471
2006-01-19 14:36:19 51°9.01 2°32.414 -999 3.400207 34.189703 -1.219471
2006-01-19 14:37:19 51°9 2°32.425 -999 3.400518 34.188426 -1.219471
2006-01-19 14:38:19 51°8.992 2°32.454 -999 3.400725 34.189788 -1.219471
2006-01-19 14:39:18 51°8.968 2°32.468 -999 3.400828 34.190944 -1.253181
2006-01-19 14:40:19 51°8.955 2°32.452 -999 3.401139 34.191564 -1.253181
2006-01-19 14:41:19 51°8.959 2°32.44 -999 3.400932 34.191151 -1.253181
2006-01-19 14:42:18 51°8.967 2°32.387 -999 3.401035 34.191358 -1.219471
2006-01-19 14:43:19 51°8.942 2°32.255 -999 3.401449 34.192185 -1.253181
2006-01-19 14:44:18 51°8.94 2°32.222 -999 3.403209 34.194752 -1.219471
2006-01-19 14:45:19 51°8.952 2°32.218 -999 3.404451 34.193442 -1.219471
2006-01-19 14:46:19 51°8.965 2°32.208 -999 3.405383 34.193408 -1.253181
2006-01-19 14:47:18 51°8.968 2°32.199 -999 3.406832 34.192516 -1.253181
2006-01-19 14:48:18 51°8.963 2°32.201 -999 3.407867 34.192691 -1.219471
2006-01-19 14:49:18 51°8.922 2°32.163 -999 3.408695 34.191507 -1.219471
2006-01-19 14:50:18 51°8.87 2°32.076 -999 3.409523 34.192216 -1.253181
2006-01-19 14:51:19 51°8.859 2°32.072 -999 3.410351 34.191034 -1.219471
2006-01-19 14:52:19 51°8.855 2°32.082 -999 3.410455 34.191241 -1.219471
2006-01-19 14:53:18 51°8.855 2°32.093 -999 3.410558 34.192394 -1.219471
2006-01-19 14:54:19 51°8.859 2°32.106 -999 3.410765 34.192808 -1.219471
2006-01-19 14:55:19 51°8.867 2°32.12 -999 3.410765 34.192808 -1.219471
2006-01-19 14:56:19 51°8.877 2°32.103 -999 3.411076 34.192483 -1.253181
2006-01-19 14:57:19 51°8.84 2°31.997 -999 3.411697 34.191834 -1.219471
2006-01-19 14:58:19 51°8.814 2°31.947 -999 3.412939 34.194317 -1.219471
2006-01-19 14:59:18 51°8.814 2°31.961 -999 3.412628 34.192751 -1.219471
2006-01-19 15:00:18 51°8.813 2°31.979 -999 3.412525 34.192544 -1.219471
2006-01-19 15:01:19 51°8.812 2°32.005 -999 3.412318 34.19213 -1.253181
2006-01-19 15:02:19 51°8.814 2°32.035 -999 3.412421 34.192337 -1.219471
2006-01-19 15:03:18 51°8.818 2°32.069 -999 3.412628 34.193696 -1.219471
2006-01-19 15:04:18 51°8.803 2°32.13 -999 3.412525 34.192544 -1.219471
2006-01-19 15:05:19 51°8.811 2°32.298 -999 3.412525 34.193489 -1.219471
2006-01-19 15:06:19 51°8.855 2°32.58 -999 3.41149 34.197092 -1.219471
2006-01-19 15:07:18 51°8.927 2°32.921 -999 3.406935 34.195563 -1.219471
2006-01-19 15:08:18 51°8.992 2°33.274 -999 3.402174 34.180358 -1.219471
2006-01-19 15:09:18 51°9.042 2°33.638 -999 3.403105 34.169908 -1.219471
2006-01-19 15:10:18 51°9.102 2°34.007 -999 3.405589 34.162587 -1.219471
2006-01-19 15:11:18 51°9.168 2°34.38 -999 3.404036 34.099044 -1.219471
2006-01-19 15:12:18 51°9.233 2°34.753 -999 3.398135 34.024013 -1.219471
2006-01-19 15:13:18 51°9.295 2°35.128 -999 3.402173 34.078318 -1.219471
2006-01-19 15:14:18 51°9.355 2°35.495 -999 3.396375 33.946304 -1.219471
2006-01-19 15:15:18 51°9.414 2°35.86 -999 3.38592 33.904175 -1.219471
2006-01-19 15:16:19 51°9.472 2°36.232 -999 3.374638 33.836771 -1.219471
2006-01-19 15:17:18 51°9.526 2°36.594 -999 3.370394 33.813886 -1.253181
2006-01-19 15:18:18 51°9.583 2°36.962 -999 3.35383 33.42856 -1.253181
2006-01-19 15:19:18 51°9.646 2°37.334 -999 3.373499 33.81099 -1.219471
2006-01-19 15:20:18 51°9.704 2°37.71 -999 3.376708 33.835453 -1.253181
2006-01-19 15:21:18 51°9.765 2°38.092 -999 3.379606 33.869568 -1.219471
2006-01-19 15:22:18 51°9.83 2°38.468 -999 3.37971 33.861349 -1.219471
2006-01-19 15:23:18 51°9.896 2°38.844 -999 3.371222 33.819359 -1.219471
2006-01-19 15:24:18 51°9.968 2°39.217 -999 3.361389 33.77822 -1.219471
2006-01-19 15:25:19 51°10.042 2°39.596 -999 3.354558 33.739521 -1.219471
2006-01-19 15:26:18 51°10.114 2°39.963 -999 3.353833 33.747385 -1.219471
2006-01-19 15:27:18 51°10.187 2°40.338 -999 3.353005 33.754102 -1.219471
2006-01-19 15:28:18 51°10.258 2°40.708 -999 3.353212 33.760174 -1.253181
2006-01-19 15:29:18 51°10.332 2°41.077 -999 3.353109 33.767477 -1.219471
2006-01-19 15:30:19 51°10.41 2°41.446 -999 3.352488 33.762416 -1.219471
2006-01-19 15:31:18 51°10.491 2°41.802 -999 3.34959 33.762934 -1.219471
2006-01-19 15:32:18 51°10.572 2°42.165 -999 3.344312 33.738692 -1.219471
2006-01-19 15:33:18 51°10.654 2°42.526 -999 3.338723 33.722244 -1.219471
2006-01-19 15:34:18 51°10.736 2°42.887 -999 3.336446 33.707088 -1.219471
2006-01-19 15:35:17 51°10.824 2°43.238 -999 3.336342 33.715354 -1.253181
2006-01-19 15:36:18 51°10.913 2°43.602 -999 3.337067 33.726307 -1.253181
2006-01-19 15:37:18 51°11 2°43.963 -999 3.340379 33.753069 -1.253181
2006-01-19 15:38:18 51°11.088 2°44.319 -999 3.342242 33.776792 -1.219471
2006-01-19 15:39:18 51°11.173 2°44.678 -999 3.341518 33.785672 -1.219471
2006-01-19 15:40:19 51°11.265 2°45.041 -999 3.341725 33.801234 -1.219471
2006-01-19 15:41:18 51°11.363 2°45.386 -999 3.340173 33.804625 -1.219471
2006-01-19 15:42:18 51°11.46 2°45.738 -999 3.337689 33.793766 -1.219471
2006-01-19 15:43:18 51°11.565 2°46.085 -999 3.333031 33.782152 -1.219471
2006-01-19 15:44:18 51°11.67 2°46.43 -999 3.32796 33.770609 -1.219471
2006-01-19 15:45:18 51°11.777 2°46.78 -999 3.322061 33.75542 -1.219471
2006-01-19 15:46:18 51°11.885 2°47.127 -999 3.315851 33.745267 -1.219471
2006-01-19 15:47:18 51°11.994 2°47.473 -999 3.309332 33.730642 -1.219471
2006-01-19 15:48:18 51°12.111 2°47.812 -999 3.302812 33.718859 -1.219471
2006-01-19 15:49:18 51°12.228 2°48.152 -999 3.296603 33.701981 -1.219471
2006-01-19 15:50:18 51°12.347 2°48.488 -999 3.289979 33.695691 -1.219471
2006-01-19 15:51:18 51°12.465 2°48.825 -999 3.281804 33.665034 -1.219471
2006-01-19 15:52:18 51°12.585 2°49.158 -999 3.276009 33.646066 -1.219471
2006-01-19 15:53:18 51°12.708 2°49.493 -999 3.272491 33.631894 -1.219471
2006-01-19 15:54:18 51°12.829 2°49.83 -999 3.274043 33.637104 -1.219471
2006-01-19 15:55:18 51°12.953 2°50.166 -999 3.274353 33.64352 -1.219471
2006-01-19 15:56:18 51°13.078 2°50.504 -999 3.27694 33.653794 -1.219471
2006-01-19 15:57:18 51°13.202 2°50.841 -999 3.284495 33.685094 -1.253181
2006-01-19 15:58:19 51°13.329 2°51.184 -999 3.291428 33.7179 -1.219471
2006-01-19 15:59:18 51°13.453 2°51.517 -999 3.292257 33.732101 -1.253181
2006-01-19 16:00:18 51°13.579 2°51.852 -999 3.291325 33.725352 -1.253181
2006-01-19 16:01:17 51°13.704 2°52.181 -999 3.286772 33.710031 -1.219471
2006-01-19 16:02:18 51°13.832 2°52.524 -999 3.281908 33.679639 -1.253181
2006-01-19 16:03:18 51°13.957 2°52.862 -999 3.282839 33.679685 -1.253181
2006-01-19 16:04:18 51°14.071 2°53.17 -999 3.287393 33.708458 -1.253181
2006-01-19 16:05:18 51°14.151 2°53.371 -999 3.285737 33.69826 -1.253181
2006-01-19 16:06:18 51°14.212 2°53.513 -999 3.273111 33.615943 -1.253181
2006-01-19 16:07:18 51°14.256 2°53.639 -999 3.271559 33.605934 -1.253181
2006-01-19 16:08:18 51°14.285 2°53.754 -999 3.271973 33.610649 -1.253181
2006-01-19 16:09:17 51°14.306 2°53.858 -999 3.270214 33.59732 -1.219471
2006-01-19 16:10:17 51°14.337 2°53.949 -999 3.265246 33.564685 -1.219471
2006-01-19 16:11:18 51°14.373 2°54.035 -999 3.258727 33.511445 -1.219471
2006-01-19 16:12:18 51°14.409 2°54.11 -999 3.255829 33.490854 -1.219471
2006-01-19 16:13:18 51°14.425 2°54.14 -999 3.25614 33.493437 -1.219471
2006-01-19 16:14:18 51°14.438 2°54.159 -999 3.257899 33.513499 -1.219471
2006-01-19 16:15:18 51°14.451 2°54.18 -999 3.259658 33.52398 -1.219471
2006-01-19 16:16:18 51°14.465 2°54.209 -999 3.26059 33.535558 -1.219471
2006-01-19 16:17:18 51°14.478 2°54.231 -999 3.261107 33.534749 -1.219471
2006-01-19 16:18:18 51°14.493 2°54.255 -999 3.262763 33.545959 -1.219471
2006-01-19 16:19:18 51°14.508 2°54.309 -999 3.263901 33.555102 -1.219471
2006-01-19 16:20:18 51°14.517 2°54.416 -999 3.264625 33.55665 -1.219471
2006-01-19 16:21:18 51°14.514 2°54.561 -999 3.258623 33.513138 -1.185762
2006-01-19 16:22:18 51°14.473 2°54.77 -999 3.249413 33.448298 -1.152053
2006-01-19 16:23:18 51°14.381 2°55.026 -999 3.23772 33.373159 -1.118343
2006-01-19 16:24:18 51°14.268 2°55.26 -999 3.198916 33.002159 -1.084634
2006-01-19 16:25:18 51°14.165 2°55.384 -999 3.125869 32.201188 -1.219471
2006-01-19 16:26:18 51°14.073 2°55.454 -999 3.125455 32.191842 -1.219471
2006-01-19 16:27:20 51°13.99 2°55.519 -999 3.123903 32.165831 -1.219471
2006-01-19 16:28:20 51°13.911 2°55.577 -999 3.123489 32.150027 -1.219471
2006-01-19 16:29:20 51°13.835 2°55.633 -999 3.122972 32.133057 -1.219471
2006-01-19 16:30:20 51°13.763 2°55.698 -999 3.123075 32.119475 -1.219471
2006-01-19 16:31:20 51°13.705 2°55.791 -999 3.124006 32.103347 -1.253181
2006-01-19 16:32:20 51°13.66 2°55.895 -999 3.125661 32.096396 -1.219471
2006-01-19 16:33:20 51°13.63 2°55.989 -999 3.12804 32.087578 -1.219471
2006-01-19 16:34:20 51°13.612 2°56.057 -999 3.130833 32.085313 -1.219471
2006-01-19 16:35:20 51°13.605 2°56.078 -999 3.133937 32.089325 -1.253181
2006-01-19 16:36:20 51°13.599 2°56.088 -999 3.137247 32.096596 -1.219471
2006-01-19 16:37:20 51°13.602 2°56.085 -999 3.140868 32.101883 -1.219471
2006-01-19 16:38:20 51°13.598 2°56.092 -999 3.144489 32.098947 -1.219471
2006-01-19 16:39:20 51°13.597 2°56.097 -999 3.148316 32.091982 -1.219471